Time;durP1;ratioP1;P1;durP2;ratioP2;P2;SDS_P1;SDS_P2;PMS_P1;PMS_P2;Temp;Humidity;BMP_temperature;BMP_pressure;BME280_temperature;BME280_humidity;BME280_pressure;Samples;Min_cycle;Max_cycle;Signal;HPM_P1;HPM_P2
2023/08/16 00:01:02;;;;;;;0.00;0.00;;;;;;;16.50;100.00;101954.91;5052700;28;20032;-46
2023/08/16 00:03:28;;;;;;;0.00;0.00;;;;;;;16.50;100.00;101952.19;5052284;28;20061;-47
2023/08/16 00:05:54;;;;;;;0.00;0.00;;;;;;;16.52;100.00;101958.28;5052597;28;20059;-45
2023/08/16 00:08:19;;;;;;;0.00;0.00;;;;;;;16.54;100.00;101958.94;5053121;28;20021;-47
2023/08/16 00:10:45;;;;;;;0.00;0.00;;;;;;;16.52;100.00;101961.00;5052927;28;20466;-46
2023/08/16 00:13:10;;;;;;;0.00;0.00;;;;;;;16.39;100.00;101956.28;5052849;28;20111;-48
2023/08/16 00:15:35;;;;;;;0.00;0.00;;;;;;;16.37;100.00;101963.78;5050925;28;20120;-45
2023/08/16 00:18:01;;;;;;;0.00;0.00;;;;;;;16.32;100.00;101953.47;5052143;28;20037;-47
2023/08/16 00:20:27;;;;;;;0.00;0.00;;;;;;;16.34;100.00;101956.84;5052236;28;20053;-47
2023/08/16 00:22:52;;;;;;;0.00;0.00;;;;;;;16.31;100.00;101954.53;5052265;28;20021;-49
2023/08/16 00:25:18;;;;;;;0.00;0.00;;;;;;;16.27;100.00;101952.38;5050964;28;20029;-47
2023/08/16 00:27:43;;;;;;;0.00;0.00;;;;;;;16.23;100.00;101954.66;5050787;28;20124;-47
2023/08/16 00:30:09;;;;;;;0.00;0.00;;;;;;;16.20;100.00;101953.16;5052035;28;20025;-47
2023/08/16 00:32:35;;;;;;;0.00;0.00;;;;;;;16.21;100.00;101959.44;5051940;28;20021;-46
2023/08/16 00:35:00;;;;;;;0.00;0.00;;;;;;;16.15;100.00;101960.19;5051912;28;20078;-48
2023/08/16 00:37:26;;;;;;;0.00;0.00;;;;;;;16.15;100.00;101963.75;5051598;28;20025;-48
2023/08/16 00:39:51;;;;;;;0.00;0.00;;;;;;;16.11;100.00;101962.44;5052115;28;20441;-45
2023/08/16 00:42:16;;;;;;;0.00;0.00;;;;;;;16.05;100.00;101973.25;5051674;28;20462;-45
2023/08/16 00:44:42;;;;;;;0.00;0.00;;;;;;;16.01;100.00;101975.50;5051610;28;20053;-44
2023/08/16 00:47:07;;;;;;;0.00;0.00;;;;;;;15.98;100.00;101976.72;5051382;28;20025;-44
2023/08/16 00:49:33;;;;;;;0.00;0.00;;;;;;;15.90;100.00;101976.81;5051459;28;20432;-47
2023/08/16 00:51:59;;;;;;;0.00;0.00;;;;;;;15.81;100.00;101980.66;5051669;28;20029;-48
2023/08/16 00:54:25;;;;;;;0.00;0.00;;;;;;;15.72;100.00;101981.81;5051474;28;20035;-44
2023/08/16 00:56:51;;;;;;;0.00;0.00;;;;;;;15.69;100.00;101993.88;5050505;28;20109;-48
2023/08/16 00:59:16;;;;;;;0.00;0.00;;;;;;;15.67;100.00;101992.34;5062249;28;20044;-47
2023/08/16 01:01:43;;;;;;;0.00;0.00;;;;;;;15.66;100.00;101993.38;5053533;28;20024;-44
2023/08/16 01:04:09;;;;;;;0.00;0.00;;;;;;;15.67;100.00;101995.06;5053588;28;20025;-46
2023/08/16 01:06:34;;;;;;;0.00;0.00;;;;;;;15.68;100.00;101988.59;5071282;28;20081;-45
2023/08/16 01:08:59;;;;;;;0.00;0.00;;;;;;;15.70;100.00;101994.72;5071154;28;20052;-45
2023/08/16 01:11:43;;;;;;;0.00;0.00;;;;;;;15.73;100.00;102005.19;5071145;28;20031;-47
2023/08/16 01:14:11;;;;;;;0.00;0.00;;;;;;;15.73;100.00;101994.34;5053244;28;20036;-44
2023/08/16 01:16:38;;;;;;;0.00;0.00;;;;;;;15.77;100.00;102006.50;5053163;28;20095;-46
2023/08/16 01:19:10;;;;;;;0.00;0.00;;;;;;;15.75;100.00;101992.28;5070973;28;20028;-48
2023/08/16 01:21:41;;;;;;;0.00;0.00;;;;;;;15.75;100.00;102003.16;5071223;28;20043;-46
2023/08/16 01:24:16;;;;;;;0.00;0.00;;;;;;;15.75;100.00;101995.00;5069933;28;20352;-44
2023/08/16 01:26:42;;;;;;;0.00;0.00;;;;;;;15.75;100.00;102003.16;5071074;28;20056;-46
2023/08/16 01:29:09;;;;;;;0.00;0.00;;;;;;;15.76;100.00;102011.09;5070772;28;20062;-44
2023/08/16 01:31:34;;;;;;;0.00;0.00;;;;;;;15.77;100.00;102006.50;5053395;28;20098;-46
2023/08/16 01:33:59;;;;;;;0.00;0.00;;;;;;;15.77;100.00;102015.50;5070853;28;20078;-46
2023/08/16 01:36:26;;;;;;;0.00;0.00;;;;;;;15.75;100.00;102011.28;5071023;28;20032;-46
2023/08/16 01:38:52;;;;;;;0.00;0.00;;;;;;;15.73;100.00;102011.47;5070587;28;20028;-46
2023/08/16 01:41:33;;;;;;;0.00;0.00;;;;;;;15.67;100.00;102012.19;5053144;28;20273;-48
2023/08/16 01:43:58;;;;;;;0.00;0.00;;;;;;;15.66;100.00;102015.06;5070631;28;20020;-45
2023/08/16 01:46:25;;;;;;;0.00;0.00;;;;;;;15.60;100.00;102016.69;5070976;28;20430;-49
2023/08/16 01:48:50;;;;;;;0.00;0.00;;;;;;;15.56;100.00;102016.22;5052642;28;20402;-45
2023/08/16 01:51:16;;;;;;;0.00;0.00;;;;;;;15.53;100.00;102013.00;5052931;28;20021;-45
2023/08/16 01:53:42;;;;;;;0.00;0.00;;;;;;;15.49;100.00;102014.44;5052722;28;20046;-44
2023/08/16 01:56:07;;;;;;;0.00;0.00;;;;;;;15.46;100.00;102015.66;5070699;28;20028;-46
2023/08/16 01:58:32;;;;;;;0.00;0.00;;;;;;;15.46;100.00;102021.06;5070349;28;20060;-47
2023/08/16 02:00:58;;;;;;;0.00;0.00;;;;;;;15.40;100.00;102023.66;5070480;28;20030;-46
2023/08/16 02:03:23;;;;;;;0.00;0.00;;;;;;;15.34;100.00;102022.53;5070447;28;20096;-46
2023/08/16 02:05:49;;;;;;;0.00;0.00;;;;;;;15.29;100.00;102025.78;5070780;28;20025;-44
2023/08/16 02:08:14;;;;;;;0.00;0.00;;;;;;;15.26;100.00;102028.03;5070838;28;20020;-44
2023/08/16 02:10:39;;;;;;;0.00;0.00;;;;;;;15.27;100.00;102032.44;5072924;28;20059;-47
2023/08/16 02:13:05;;;;;;;0.00;0.00;;;;;;;15.23;100.00;102033.84;5074613;28;20060;-49
2023/08/16 02:15:30;;;;;;;0.00;0.00;;;;;;;15.22;100.00;102034.84;5074445;28;20037;-49
2023/08/16 02:17:56;;;;;;;0.00;0.00;;;;;;;15.23;100.00;102031.97;5074622;28;20024;-47
2023/08/16 02:20:21;;;;;;;0.00;0.00;;;;;;;15.22;100.00;102033.00;5074638;28;20037;-43
2023/08/16 02:22:47;;;;;;;0.00;0.00;;;;;;;15.23;100.00;102031.97;5074957;28;20120;-46
2023/08/16 02:25:12;;;;;;;0.00;0.00;;;;;;;15.28;100.00;102036.84;5074872;28;20470;-45
2023/08/16 02:27:37;;;;;;;0.00;0.00;;;;;;;15.27;100.00;102032.44;5074464;28;20026;-45
2023/08/16 02:30:04;;;;;;;0.00;0.00;;;;;;;15.23;100.00;102031.13;5074269;28;20020;-46
2023/08/16 02:32:30;;;;;;;0.00;0.00;;;;;;;15.20;100.00;102031.50;5074330;28;20028;-47
2023/08/16 02:34:55;;;;;;;0.00;0.00;;;;;;;15.18;100.00;102028.13;5074040;28;20070;-47
2023/08/16 02:37:20;;;;;;;0.00;0.00;;;;;;;15.14;100.00;102017.66;5073812;28;20479;-47
2023/08/16 02:39:46;;;;;;;0.00;0.00;;;;;;;15.14;100.00;102033.91;5055701;28;20036;-49
2023/08/16 02:42:11;;;;;;;0.00;0.00;;;;;;;15.14;100.00;102031.22;5073862;28;20078;-47
2023/08/16 02:44:37;;;;;;;0.00;0.00;;;;;;;15.14;100.00;102028.50;5073887;28;20020;-50
2023/08/16 02:47:02;;;;;;;0.00;0.00;;;;;;;15.17;100.00;102027.28;5074163;28;20020;-45
2023/08/16 02:49:28;;;;;;;0.00;0.00;;;;;;;15.17;100.00;102021.03;5055845;28;20033;-45
2023/08/16 02:51:53;;;;;;;0.00;0.00;;;;;;;15.17;100.00;102016.44;5073705;28;20095;-49
2023/08/16 02:54:18;;;;;;;0.00;0.00;;;;;;;15.12;100.00;102025.13;5056107;28;20115;-48
2023/08/16 02:56:44;;;;;;;0.00;0.00;;;;;;;15.11;100.00;102022.56;5073765;28;20024;-45
2023/08/16 02:59:13;;;;;;;0.00;0.00;;;;;;;15.08;100.00;102017.53;5073757;28;20102;-46
2023/08/16 03:01:39;;;;;;;0.00;0.00;;;;;;;15.08;100.00;102018.34;5074109;28;20085;-46
2023/08/16 03:04:05;;;;;;;0.00;0.00;;;;;;;15.08;100.00;102018.34;5073912;28;20032;-46
2023/08/16 03:06:30;;;;;;;0.00;0.00;;;;;;;15.08;100.00;102026.50;5074144;28;20100;-43
2023/08/16 03:08:55;;;;;;;0.00;0.00;;;;;;;15.07;100.00;102030.25;5058996;28;20442;-45
2023/08/16 03:11:21;;;;;;;0.00;0.00;;;;;;;15.07;100.00;102027.53;5053371;28;20025;-44
2023/08/16 03:13:46;;;;;;;0.00;0.00;;;;;;;15.03;100.00;102031.63;5053198;28;20040;-46
2023/08/16 03:16:11;;;;;;;0.00;0.00;;;;;;;15.05;100.00;102037.72;5053000;28;20375;-47
2023/08/16 03:18:37;;;;;;;0.00;0.00;;;;;;;15.04;100.00;102036.03;5053357;28;20071;-45
2023/08/16 03:21:02;;;;;;;0.00;0.00;;;;;;;15.02;100.00;102038.06;5052937;28;20057;-47
2023/08/16 03:23:27;;;;;;;0.00;0.00;;;;;;;15.01;100.00;102038.25;5053193;28;20379;-46
2023/08/16 03:25:53;;;;;;;0.00;0.00;;;;;;;14.96;100.00;102036.09;5052988;28;20033;-44
2023/08/16 03:28:18;;;;;;;0.00;0.00;;;;;;;14.97;100.00;102040.50;5053530;28;20045;-47
2023/08/16 03:30:43;;;;;;;0.00;0.00;;;;;;;15.00;100.00;102042.84;5053129;28;20036;-45
2023/08/16 03:33:09;;;;;;;0.00;0.00;;;;;;;15.01;100.00;102043.66;5064591;28;20374;-45
2023/08/16 03:35:35;;;;;;;0.00;0.00;;;;;;;15.00;100.00;102047.41;5072196;28;20028;-47
2023/08/16 03:38:00;;;;;;;0.00;0.00;;;;;;;14.97;100.00;102054.03;5072953;28;20028;-47
2023/08/16 03:40:26;;;;;;;0.00;0.00;;;;;;;14.93;100.00;102047.31;5073083;28;20032;-46
2023/08/16 03:42:51;;;;;;;0.00;0.00;;;;;;;14.91;100.00;102052.06;5072933;28;20451;-47
2023/08/16 03:45:16;;;;;;;0.00;0.00;;;;;;;14.88;100.00;102055.16;5073219;28;20024;-44
2023/08/16 03:47:43;;;;;;;0.00;0.00;;;;;;;14.86;100.00;102051.75;5074313;28;20120;-42
2023/08/16 03:50:09;;;;;;;0.00;0.00;;;;;;;14.83;100.00;102052.97;5074711;28;20035;-44
2023/08/16 03:52:34;;;;;;;0.00;0.00;;;;;;;14.82;100.00;102053.13;5057351;28;20032;-44
2023/08/16 03:54:59;;;;;;;0.00;0.00;;;;;;;14.80;100.00;102056.03;5074891;28;20017;-44
2023/08/16 03:57:25;;;;;;;0.00;0.00;;;;;;;14.81;100.00;102059.59;5073083;28;21089;-44
2023/08/16 03:59:52;;;;;;;0.00;0.00;;;;;;;14.77;100.00;102059.13;5072599;28;20048;-44
2023/08/16 04:02:21;;;;;;;0.00;0.00;;;;;;;14.76;100.00;102062.84;5072357;28;20090;-46
2023/08/16 04:04:51;;;;;;;0.00;0.00;;;;;;;14.76;100.00;102056.56;5072270;28;20029;-46
2023/08/16 04:07:16;;;;;;;0.00;0.00;;;;;;;14.77;100.00;102063.69;5071577;28;20051;-45
2023/08/16 04:09:41;;;;;;;0.00;0.00;;;;;;;14.73;100.00;102054.22;5072159;28;20121;-47
2023/08/16 04:12:07;;;;;;;0.00;0.00;;;;;;;14.69;100.00;102060.03;5072285;28;20173;-47
2023/08/16 04:14:32;;;;;;;0.00;0.00;;;;;;;14.65;100.00;102060.53;5072212;28;20060;-47
2023/08/16 04:16:57;;;;;;;0.00;0.00;;;;;;;14.64;100.00;102061.56;5072164;28;20036;-48
2023/08/16 04:19:23;;;;;;;0.00;0.00;;;;;;;14.63;100.00;102065.28;5072163;28;20025;-47
2023/08/16 04:21:48;;;;;;;0.00;0.00;;;;;;;14.66;100.00;102062.22;5071655;28;20034;-46
2023/08/16 04:24:14;;;;;;;0.00;0.00;;;;;;;14.65;100.00;102066.81;5071894;28;20047;-46
2023/08/16 04:26:40;;;;;;;0.00;0.00;;;;;;;14.62;100.00;102061.75;5072076;28;20116;-45
2023/08/16 04:29:05;;;;;;;0.00;0.00;;;;;;;14.60;100.00;102055.66;5072091;28;20020;-47
2023/08/16 04:31:31;;;;;;;0.00;0.00;;;;;;;14.63;100.00;102066.13;5072021;28;20024;-46
2023/08/16 04:33:56;;;;;;;0.00;0.00;;;;;;;14.67;100.00;102058.50;5071090;28;20029;-44
2023/08/16 04:36:22;;;;;;;0.00;0.00;;;;;;;14.70;100.00;102061.69;5071688;28;20036;-44
2023/08/16 04:38:47;;;;;;;0.00;0.00;;;;;;;14.74;100.00;102058.63;5071429;28;20031;-47
2023/08/16 04:41:12;;;;;;;0.00;0.00;;;;;;;14.74;100.00;102053.19;5033309;28;20025;-46
2023/08/16 04:43:38;;;;;;;0.20;0.00;;;;;;;14.75;100.00;102054.91;5067652;28;20036;-49
2023/08/16 04:46:04;;;;;;;0.00;0.00;;;;;;;14.75;100.00;102054.91;5071051;28;20082;-45
2023/08/16 04:48:29;;;;;;;0.00;0.00;;;;;;;14.79;100.00;102058.94;5070520;28;20479;-45
2023/08/16 04:50:54;;;;;;;0.00;0.00;;;;;;;14.82;100.00;102061.25;5070609;28;20032;-50
2023/08/16 04:53:20;;;;;;;0.00;0.00;;;;;;;14.89;100.00;102062.25;5071543;28;20115;-45
2023/08/16 04:55:45;;;;;;;0.00;0.00;;;;;;;14.97;100.00;102073.03;5071098;28;20470;-48
2023/08/16 04:58:11;;;;;;;0.00;0.00;;;;;;;15.00;100.00;102063.69;5071182;28;20044;-45
2023/08/16 05:00:37;;;;;;;0.00;0.00;;;;;;;15.04;100.00;102065.84;5054018;28;20047;-47
2023/08/16 05:03:03;;;;;;;0.00;0.00;;;;;;;15.09;100.00;102060.72;5070914;28;20032;-44
2023/08/16 05:05:28;;;;;;;0.00;0.00;;;;;;;15.11;100.00;102063.25;5071418;28;20073;-46
2023/08/16 05:07:54;;;;;;;0.00;0.00;;;;;;;15.16;100.00;102058.13;5071206;28;20379;-44
2023/08/16 05:10:19;;;;;;;0.00;0.00;;;;;;;15.18;100.00;102060.66;5071179;28;20037;-45
2023/08/16 05:12:45;;;;;;;0.00;0.00;;;;;;;15.22;100.00;102073.69;5070900;28;20033;-43
2023/08/16 05:15:10;;;;;;;0.00;0.00;;;;;;;15.20;100.00;102064.88;5071526;28;20025;-47
2023/08/16 05:17:36;;;;;;;0.00;0.00;;;;;;;15.21;100.00;102063.00;5070559;28;20052;-49
2023/08/16 05:20:02;;;;;;;0.00;0.00;;;;;;;15.26;100.00;102066.84;5071235;28;20719;-48
2023/08/16 05:22:27;;;;;;;0.00;0.00;;;;;;;15.32;100.00;102068.84;5055720;28;20028;-48
2023/08/16 05:24:53;;;;;;;0.00;0.00;;;;;;;15.37;100.00;102076.41;5070519;28;20056;-46
2023/08/16 05:27:18;;;;;;;0.00;0.00;;;;;;;15.41;100.00;102080.47;5070979;28;20393;-46
2023/08/16 05:29:43;;;;;;;0.00;0.00;;;;;;;15.48;100.00;102075.13;5070900;28;20089;-46
2023/08/16 05:32:09;;;;;;;0.00;0.00;;;;;;;15.59;100.00;102075.53;5071041;28;20034;-46
2023/08/16 05:34:34;;;;;;;0.00;0.00;;;;;;;15.76;100.00;102083.53;5071719;28;20033;-49
2023/08/16 05:37:00;;;;;;;0.00;0.00;;;;;;;15.93;100.00;102076.03;5071501;28;20637;-45
2023/08/16 05:39:25;;;;;;;0.00;0.00;;;;;;;16.06;100.00;102078.09;5053228;28;20467;-48
2023/08/16 05:41:51;;;;;;;0.00;0.00;;;;;;;16.12;100.00;102069.22;5071299;28;20033;-47
2023/08/16 05:44:16;;;;;;;0.00;0.00;;;;;;;16.26;100.00;102068.34;5070308;28;20474;-49
2023/08/16 05:46:42;;;;;;;0.00;0.00;;;;;;;16.41;100.00;102068.34;5070348;28;20496;-47
2023/08/16 05:49:07;;;;;;;0.00;0.00;;;;;;;16.57;100.00;102078.13;5048994;28;20443;-48
2023/08/16 05:51:33;;;;;;;0.00;0.00;;;;;;;16.72;100.00;102076.22;5070348;28;20024;-46
2023/08/16 05:53:58;;;;;;;0.00;0.00;;;;;;;16.88;100.00;102081.44;5070815;28;20040;-46
2023/08/16 05:56:24;;;;;;;0.00;0.00;;;;;;;16.95;100.00;102083.38;5071533;28;20474;-46
2023/08/16 05:58:49;;;;;;;0.00;0.00;;;;;;;17.35;100.00;102087.28;5052165;28;20079;-46
2023/08/16 06:01:14;;;;;;;0.00;0.00;;;;;;;18.15;100.00;102101.50;5071368;28;20037;-49
2023/08/16 06:03:40;;;;;;;0.13;0.00;;;;;;;19.01;100.00;102104.56;5071684;28;20056;-48
2023/08/16 06:06:06;;;;;;;0.00;0.00;;;;;;;19.80;100.00;102070.16;5071252;28;20082;-47
2023/08/16 06:08:31;;;;;;;0.00;0.00;;;;;;;20.00;100.00;102047.38;5053520;28;20051;-46
2023/08/16 06:10:57;;;;;;;0.00;0.00;;;;;;;19.91;100.00;102042.16;5071845;28;20709;-47
2023/08/16 06:13:22;;;;;;;0.00;0.00;;;;;;;19.99;100.00;102051.19;5053677;28;20044;-46
2023/08/16 06:15:48;;;;;;;0.00;0.00;;;;;;;20.09;100.00;102046.06;5072115;28;20029;-46
2023/08/16 06:18:13;;;;;;;0.00;0.00;;;;;;;20.17;100.00;102041.22;5070752;28;20359;-46
2023/08/16 06:20:39;;;;;;;0.00;0.00;;;;;;;20.48;100.00;102046.94;5070737;28;20101;-45
2023/08/16 06:23:04;;;;;;;0.00;0.00;;;;;;;20.59;100.00;102038.09;5070621;28;20031;-47
2023/08/16 06:25:30;;;;;;;0.00;0.00;;;;;;;20.80;100.00;102043.22;5070355;28;20037;-45
2023/08/16 06:27:55;;;;;;;0.00;0.00;;;;;;;20.96;100.00;102041.00;5070510;28;20021;-47
2023/08/16 06:30:20;;;;;;;0.00;0.00;;;;;;;21.56;100.00;102048.72;5069378;28;20024;-45
2023/08/16 06:32:46;;;;;;;0.00;0.00;;;;;;;22.10;100.00;102042.44;5070536;28;20467;-48
2023/08/16 06:35:12;;;;;;;0.00;0.00;;;;;;;23.27;100.00;102030.19;5070453;28;20025;-48
2023/08/16 06:37:39;;;;;;;0.00;0.00;;;;;;;24.69;100.00;102031.59;5070276;28;20046;-47
2023/08/16 06:40:05;;;;;;;0.00;0.00;;;;;;;25.12;100.00;102034.78;5070473;28;20055;-49
2023/08/16 06:42:31;;;;;;;0.00;0.00;;;;;;;26.36;100.00;102044.56;5070337;28;20367;-48
2023/08/16 06:44:57;;;;;;;0.00;0.00;;;;;;;26.89;100.00;102031.03;5070768;28;20027;-45
2023/08/16 06:47:22;;;;;;;0.00;0.00;;;;;;;26.89;100.00;102040.16;5070551;28;20033;-46
2023/08/16 06:49:47;;;;;;;0.00;0.00;;;;;;;26.16;100.00;102044.34;5070864;28;20341;-46
2023/08/16 06:52:13;;;;;;;0.00;0.00;;;;;;;25.91;100.00;102039.31;5070543;28;20029;-46
2023/08/16 06:54:38;;;;;;;0.00;0.00;;;;;;;26.10;100.00;102037.09;5070174;28;20059;-48
2023/08/16 06:57:05;;;;;;;0.00;0.00;;;;;;;26.86;100.00;102043.44;5073416;28;20035;-45
2023/08/16 06:59:31;;;;;;;0.00;0.00;;;;;;;27.72;97.53;102036.06;5074566;28;20132;-45
2023/08/16 07:01:57;;;;;;;0.00;0.00;;;;;;;27.00;100.00;102038.31;5074170;28;20044;-45
2023/08/16 07:04:22;;;;;;;0.00;0.00;;;;;;;27.10;100.00;102043.09;5074024;28;20436;-46
2023/08/16 07:06:48;;;;;;;0.00;0.00;;;;;;;26.78;100.00;102052.22;5073855;28;20043;-47
2023/08/16 07:09:13;;;;;;;0.00;0.00;;;;;;;26.68;100.00;102044.66;5073775;28;20145;-51
2023/08/16 07:11:39;;;;;;;0.00;0.00;;;;;;;27.24;100.00;102052.63;5039055;28;20032;-47
2023/08/16 07:14:04;;;;;;;0.00;0.00;;;;;;;27.90;97.30;102048.63;5073855;28;20047;-47
2023/08/16 07:16:31;;;;;;;0.00;0.00;;;;;;;28.58;95.87;102057.75;5055583;28;20127;-45
2023/08/16 07:18:56;;;;;;;0.00;0.00;;;;;;;29.11;90.51;102052.00;5073092;28;20097;-47
2023/08/16 07:21:21;;;;;;;0.00;0.00;;;;;;;28.84;88.77;102052.25;5073305;28;20347;-45
2023/08/16 07:23:47;;;;;;;0.00;0.00;;;;;;;27.86;93.88;102045.59;5073345;28;20459;-46
2023/08/16 07:26:12;;;;;;;0.00;0.00;;;;;;;27.30;98.35;102048.78;5073132;28;20035;-43
2023/08/16 07:28:38;;;;;;;0.00;0.00;;;;;;;27.24;98.87;102055.38;5055161;28;20028;-48
2023/08/16 07:31:03;;;;;;;0.00;0.00;;;;;;;26.63;98.94;102054.81;5073071;28;20070;-46
2023/08/16 07:33:31;;;;;;;0.00;0.00;;;;;;;27.02;100.00;102063.75;5073011;28;20036;-47
2023/08/16 07:36:01;;;;;;;0.00;0.00;;;;;;;27.42;98.83;102067.13;5072984;28;20021;-45
2023/08/16 07:38:28;;;;;;;0.00;0.00;;;;;;;28.05;92.76;102070.84;5073323;28;20555;-47
2023/08/16 07:40:54;;;;;;;0.00;0.00;;;;;;;27.76;95.12;102064.88;5073775;28;20548;-47
2023/08/16 07:43:19;;;;;;;0.00;0.00;;;;;;;27.97;92.32;102072.19;5073890;28;20052;-45
2023/08/16 07:45:44;;;;;;;0.00;0.00;;;;;;;27.89;92.45;102066.34;5073028;28;20024;-47
2023/08/16 07:48:10;;;;;;;0.00;0.00;;;;;;;28.33;90.74;102065.97;5072956;28;20383;-47
2023/08/16 07:50:36;;;;;;;0.00;0.00;;;;;;;28.01;89.42;102069.72;5072585;28;20024;-48
2023/08/16 07:53:01;;;;;;;0.00;0.00;;;;;;;27.94;89.74;102069.16;5073054;28;20290;-49
2023/08/16 07:55:31;;;;;;;0.00;0.00;;;;;;;28.41;88.57;102069.06;5072780;28;20134;-48
2023/08/16 07:57:57;;;;;;;0.00;0.00;;;;;;;29.07;86.37;102065.59;5072372;28;20024;-47
2023/08/16 08:00:23;;;;;;;0.00;0.00;;;;;;;29.70;84.41;102073.59;5072215;28;20031;-50
2023/08/16 08:02:48;;;;;;;0.00;0.00;;;;;;;29.91;81.78;102074.38;5072604;28;20024;-47
2023/08/16 08:05:15;;;;;;;0.00;0.00;;;;;;;30.26;80.40;102078.13;5072992;28;20432;-48
2023/08/16 08:07:40;;;;;;;0.00;0.00;;;;;;;30.52;78.67;102081.59;5054934;28;20028;-48
2023/08/16 08:10:06;;;;;;;0.00;0.00;;;;;;;30.02;82.40;102074.31;5073478;28;20031;-47
2023/08/16 08:12:31;;;;;;;0.00;0.00;;;;;;;30.81;77.75;102092.84;5075133;28;20082;-46
2023/08/16 08:14:58;;;;;;;0.00;0.00;;;;;;;30.81;73.89;102081.72;5073935;28;20271;-45
2023/08/16 08:17:23;;;;;;;0.00;0.00;;;;;;;30.53;74.59;102079.66;5073774;28;20040;-45
2023/08/16 08:19:49;;;;;;;0.00;0.00;;;;;;;30.14;77.37;102078.41;5072116;28;20115;-46
2023/08/16 08:22:14;;;;;;;0.00;0.00;;;;;;;30.47;76.54;102078.03;5072691;28;20017;-46
2023/08/16 08:24:39;;;;;;;0.00;0.00;;;;;;;30.70;74.10;102085.66;5072619;28;20032;-45
2023/08/16 08:27:05;;;;;;;0.00;0.00;;;;;;;30.71;73.19;102081.75;5072809;28;20035;-47
2023/08/16 08:29:30;;;;;;;0.00;0.00;;;;;;;31.02;71.56;102081.56;5072472;28;20434;-49
2023/08/16 08:31:56;;;;;;;0.00;0.00;;;;;;;31.09;71.31;102090.41;5072029;28;20024;-46
2023/08/16 08:34:22;;;;;;;0.00;0.00;;;;;;;31.27;70.12;102089.69;5053664;28;20566;-49
2023/08/16 08:36:47;;;;;;;0.00;0.00;;;;;;;31.20;69.34;102089.22;5071903;28;20024;-48
2023/08/16 08:39:15;;;;;;;0.00;0.00;;;;;;;31.04;70.30;102090.44;5071870;28;20025;-47
2023/08/16 08:41:41;;;;;;;0.00;0.00;;;;;;;31.78;70.39;102098.66;5070628;28;20036;-49
2023/08/16 08:44:06;;;;;;;0.00;0.00;;;;;;;32.65;66.90;102101.25;5053617;28;20027;-47
2023/08/16 08:46:32;;;;;;;0.00;0.00;;;;;;;32.40;64.86;102104.34;5053442;28;20025;-50
2023/08/16 08:49:00;;;;;;;0.00;0.00;;;;;;;31.97;64.80;102096.00;5053472;28;20086;-46
2023/08/16 08:51:28;;;;;;;0.00;0.00;;;;;;;31.44;66.52;102105.97;5072005;28;20047;-48
2023/08/16 08:53:54;;;;;;;0.00;0.00;;;;;;;30.95;69.13;102103.31;5071566;28;20032;-48
2023/08/16 08:56:19;;;;;;;0.00;0.00;;;;;;;30.87;71.56;102098.38;5071412;28;20402;-48
2023/08/16 08:58:46;;;;;;;0.00;0.00;;;;;;;31.32;69.68;102102.72;5053394;28;20063;-48
2023/08/16 09:01:13;;;;;;;0.00;0.00;;;;;;;31.51;67.71;102100.06;5053592;28;20029;-47
2023/08/16 09:03:40;;;;;;;0.00;0.00;;;;;;;31.54;67.60;102107.81;5070993;28;20062;-45
2023/08/16 09:06:07;;;;;;;0.00;0.00;;;;;;;31.51;68.78;102108.41;5070852;28;20052;-46
2023/08/16 09:08:36;;;;;;;0.00;0.00;;;;;;;31.33;67.43;102104.38;5071384;28;20102;-46
2023/08/16 09:11:01;;;;;;;0.00;0.00;;;;;;;31.39;67.91;102108.81;5071169;28;20024;-47
2023/08/16 09:13:27;;;;;;;0.00;0.00;;;;;;;31.63;65.97;102108.84;5053395;28;20039;-46
2023/08/16 09:15:52;;;;;;;0.00;0.00;;;;;;;31.79;68.02;102112.31;5071212;28;20463;-47
2023/08/16 09:18:19;;;;;;;0.00;0.00;;;;;;;32.17;67.17;102100.47;5070472;28;20024;-47
2023/08/16 09:20:45;;;;;;;;;;;;;;;32.28;63.21;102102.00;5071654;28;20052;-48
2023/08/16 09:23:14;;;;;;;;;;;;;;;31.64;63.69;102098.53;5071375;28;19920;-47
2023/08/16 09:25:39;;;;;;;0.00;0.00;;;;;;;31.68;66.50;102096.84;5070919;28;19919;-47
2023/08/16 09:28:09;;;;;;;0.00;0.00;;;;;;;31.78;66.37;102090.31;5070940;28;20024;-47
2023/08/16 09:30:34;;;;;;;0.00;0.00;;;;;;;32.08;64.57;102089.16;5069905;28;20086;-47
2023/08/16 09:33:00;;;;;;;0.00;0.00;;;;;;;32.13;65.14;102094.69;5070923;28;20028;-48
2023/08/16 09:35:29;;;;;;;0.00;0.00;;;;;;;32.08;66.38;102101.13;5070799;28;20020;-47
2023/08/16 09:37:58;;;;;;;0.00;0.00;;;;;;;31.03;60.65;102089.59;5070925;28;20120;-48
2023/08/16 09:40:24;;;;;;;0.00;0.00;;;;;;;31.64;61.89;102091.03;5070873;28;20115;-49
2023/08/16 09:42:49;;;;;;;0.00;0.00;;;;;;;31.78;61.66;102088.38;5070407;28;20020;-46
2023/08/16 09:45:15;;;;;;;0.00;0.00;;;;;;;31.65;64.87;102078.78;5070919;28;20046;-45
2023/08/16 09:47:44;;;;;;;0.00;0.00;;;;;;;31.70;66.03;102084.28;5070613;28;20059;-46
2023/08/16 09:50:10;;;;;;;0.00;0.00;;;;;;;32.42;62.78;102080.63;5071096;28;20028;-48
2023/08/16 09:52:36;;;;;;;0.00;0.00;;;;;;;32.63;61.44;102083.97;5070674;28;20029;-47
2023/08/16 09:55:03;;;;;;;0.00;0.00;;;;;;;32.44;60.93;102089.53;5070495;28;20059;-46
2023/08/16 09:57:29;;;;;;;0.00;0.00;;;;;;;31.93;61.55;102090.16;5070354;28;20045;-47
2023/08/16 09:59:55;;;;;;;0.00;0.00;;;;;;;31.07;61.35;102089.88;5049075;28;20045;-49
2023/08/16 10:02:21;;;;;;;0.00;0.00;;;;;;;31.01;64.42;102085.47;5049372;28;20138;-47
2023/08/16 10:04:46;;;;;;;0.00;0.00;;;;;;;31.64;63.15;102079.88;5032501;28;20028;-48
2023/08/16 10:07:12;;;;;;;0.00;0.00;;;;;;;32.02;63.03;102082.84;5050512;28;20020;-46
2023/08/16 10:09:41;;;;;;;0.00;0.00;;;;;;;31.92;63.13;102082.94;5049151;28;20021;-47
2023/08/16 10:12:08;;;;;;;0.00;0.00;;;;;;;31.84;62.59;102083.59;5050430;28;20112;-43
2023/08/16 10:14:34;;;;;;;0.00;0.00;;;;;;;31.73;62.49;102084.81;5050272;28;20037;-45
2023/08/16 10:17:01;;;;;;;0.00;0.00;;;;;;;31.57;60.39;102095.28;5050963;28;20083;-45
2023/08/16 10:19:32;;;;;;;0.00;0.00;;;;;;;31.21;61.80;102090.84;5049476;28;20036;-45
2023/08/16 10:21:59;;;;;;;0.00;0.00;;;;;;;31.42;63.57;102080.41;5050660;28;20113;-46
2023/08/16 10:24:25;;;;;;;0.00;0.00;;;;;;;31.52;63.59;102087.81;5048849;28;20025;-46
2023/08/16 10:26:50;;;;;;;0.00;0.00;;;;;;;31.54;63.78;102085.56;5049204;28;20020;-47
2023/08/16 10:29:21;;;;;;;0.00;0.00;;;;;;;31.86;60.95;102082.16;5032313;28;20021;-47
2023/08/16 10:31:46;;;;;;;0.00;0.00;;;;;;;31.56;61.09;102088.06;5052757;28;20120;-48
2023/08/16 10:34:14;;;;;;;0.00;0.00;;;;;;;31.13;61.43;102073.97;5053108;28;20025;-46
2023/08/16 10:36:39;;;;;;;0.00;0.00;;;;;;;30.79;61.63;102077.53;5036355;28;20017;-45
2023/08/16 10:39:07;;;;;;;0.00;0.00;;;;;;;30.88;63.77;102086.94;5054010;28;20048;-46
2023/08/16 10:41:41;;;;;;;0.00;0.00;;;;;;;31.27;62.54;102095.25;5053479;28;20025;-45
2023/08/16 10:44:07;;;;;;;0.00;0.00;;;;;;;31.58;62.84;102083.84;5053883;28;20472;-45
2023/08/16 10:46:36;;;;;;;0.00;0.00;;;;;;;31.23;61.05;102083.06;5054202;28;20032;-43
2023/08/16 10:49:08;;;;;;;0.00;0.00;;;;;;;31.02;63.71;102078.78;5053914;28;20078;-45
2023/08/16 10:51:52;;;;;;;0.00;0.00;;;;;;;30.71;64.05;102076.19;5053756;28;20105;-45
2023/08/16 10:54:19;;;;;;;0.00;0.00;;;;;;;30.97;63.27;102084.41;5053809;28;20025;-44
2023/08/16 10:56:44;;;;;;;;;;;;;;;31.44;63.52;102088.47;5054326;28;20032;-48
2023/08/16 10:59:12;;;;;;;0.00;0.00;;;;;;;31.30;62.72;102079.91;5052407;28;19981;-46
2023/08/16 11:01:44;;;;;;;0.00;0.00;;;;;;;30.91;61.74;102071.63;5053948;28;20025;-46
2023/08/16 11:04:10;;;;;;;0.00;0.00;;;;;;;31.53;59.88;102078.34;5053901;28;20083;-45
2023/08/16 11:06:39;;;;;;;0.00;0.00;;;;;;;30.47;63.19;102076.09;5053907;28;20464;-46
2023/08/16 11:09:04;;;;;;;0.00;0.00;;;;;;;31.32;65.72;102079.63;5053750;28;20036;-47
2023/08/16 11:11:30;;;;;;;0.00;0.00;;;;;;;31.99;56.91;102083.41;5053680;28;20029;-46
2023/08/16 11:13:58;;;;;;;0.00;0.00;;;;;;;31.69;59.48;102079.00;5054082;28;20033;-46
2023/08/16 11:16:24;;;;;;;0.00;0.00;;;;;;;31.83;54.79;102081.91;5053630;28;20332;-47